createdAt,value
2022-11-03T00:02:01.201Z,1.25
2022-11-03T00:04:28.285Z,1.33
2022-11-03T00:06:55.713Z,1.00
2022-11-03T00:09:23.725Z,1.38
2022-11-03T00:11:51.660Z,0.73
2022-11-03T00:14:19.231Z,1.20
2022-11-03T00:16:46.688Z,1.00
2022-11-03T00:19:17.356Z,1.02
2022-11-03T00:21:44.830Z,1.05
2022-11-03T00:24:12.156Z,1.52
2022-11-03T00:26:39.459Z,1.25
2022-11-03T00:29:09.387Z,1.55
2022-11-03T00:31:37.885Z,0.95
2022-11-03T00:34:07.058Z,1.25
2022-11-03T00:36:42.305Z,0.98
2022-11-03T00:39:09.773Z,1.42
2022-11-03T00:41:36.874Z,1.38
2022-11-03T00:44:03.711Z,1.45
2022-11-03T00:46:30.571Z,1.30
2022-11-03T00:48:57.574Z,1.27
2022-11-03T00:51:27.547Z,1.60
2022-11-03T00:53:58.921Z,1.73
2022-11-03T00:56:26.998Z,1.17
2022-11-03T00:58:55.511Z,0.93
2022-11-03T01:01:29.402Z,1.10
2022-11-03T01:04:16.114Z,1.70
2022-11-03T01:06:52.070Z,1.80
2022-11-03T01:09:34.291Z,1.33
2022-11-03T01:14:32.081Z,1.20
2022-11-03T01:16:59.170Z,1.15
2022-11-03T01:19:26.154Z,1.17
2022-11-03T01:21:53.920Z,1.25
2022-11-03T01:24:20.962Z,1.25
2022-11-03T01:26:48.469Z,1.60
2022-11-03T01:29:15.400Z,1.20
2022-11-03T01:31:42.175Z,1.40
2022-11-03T01:34:17.069Z,1.27
2022-11-03T01:36:44.667Z,1.70
2022-11-03T01:39:13.269Z,1.25
2022-11-03T01:41:41.476Z,1.17
2022-11-03T01:44:08.160Z,1.63
2022-11-03T01:46:58.241Z,1.52
2022-11-03T01:49:30.617Z,1.38
2022-11-03T01:52:05.523Z,1.60
2022-11-03T01:54:35.445Z,1.20
2022-11-03T01:57:06.774Z,1.75
2022-11-03T01:59:33.989Z,1.75
2022-11-03T02:02:01.103Z,1.13
2022-11-03T02:04:30.944Z,1.30
2022-11-03T02:07:23.320Z,1.10
2022-11-03T02:12:19.856Z,0.98
2022-11-03T02:14:54.468Z,1.45
2022-11-03T02:17:22.906Z,1.30
2022-11-03T02:20:05.071Z,2.20
2022-11-03T02:25:09.391Z,1.00
2022-11-03T02:27:36.185Z,1.20
2022-11-03T02:30:03.373Z,1.73
2022-11-03T02:32:37.903Z,1.58
2022-11-03T02:35:28.355Z,1.88
2022-11-03T02:37:58.277Z,0.98
2022-11-03T02:40:32.678Z,1.63
2022-11-03T02:43:00.682Z,1.13
2022-11-03T02:45:28.574Z,0.93
2022-11-03T02:47:58.654Z,1.83
2022-11-03T02:50:30.257Z,1.42
2022-11-03T02:52:57.879Z,1.92
2022-11-03T02:55:48.754Z,1.60
2022-11-03T02:58:37.273Z,0.93
2022-11-03T03:01:34.662Z,1.58
2022-11-03T03:04:06.425Z,1.45
2022-11-03T03:06:59.339Z,1.00
2022-11-03T03:09:35.118Z,1.85
2022-11-03T03:12:04.788Z,0.95
2022-11-03T03:14:42.304Z,1.27
2022-11-03T03:17:23.645Z,1.30
2022-11-03T03:19:54.384Z,0.90
2022-11-03T03:22:44.615Z,1.75
2022-11-03T03:25:16.676Z,2.72
2022-11-03T03:30:13.829Z,1.30
2022-11-03T03:32:45.566Z,0.85
2022-11-03T03:35:17.245Z,1.33
2022-11-03T03:37:48.606Z,1.40
2022-11-03T03:40:20.944Z,1.33
2022-11-03T03:42:48.371Z,1.33
2022-11-03T03:45:16.437Z,1.60
2022-11-03T03:47:44.033Z,1.40
2022-11-03T03:50:10.932Z,1.60
2022-11-03T03:52:38.040Z,1.23
2022-11-03T03:55:10.621Z,1.65
2022-11-03T03:57:37.349Z,1.33
2022-11-03T04:00:04.552Z,1.27
2022-11-03T04:02:39.248Z,1.08
2022-11-03T04:05:06.460Z,1.80
2022-11-03T04:07:48.271Z,1.77
2022-11-03T04:10:16.643Z,2.60
2022-11-03T04:13:02.852Z,3.08
2022-11-03T04:15:48.919Z,1.38
2022-11-03T04:18:34.788Z,5.93
2022-11-03T04:21:20.496Z,3.55
2022-11-03T04:23:47.235Z,1.60
2022-11-03T04:26:19.369Z,1.30
2022-11-03T04:28:46.321Z,1.05
2022-11-03T04:31:14.011Z,1.30
2022-11-03T04:33:41.737Z,1.55
2022-11-03T04:36:17.624Z,1.45
2022-11-03T04:38:45.048Z,1.60
2022-11-03T04:41:20.004Z,1.92
2022-11-03T04:43:46.891Z,1.60
2022-11-03T04:46:17.677Z,1.10
2022-11-03T04:48:44.660Z,1.40
2022-11-03T04:51:16.291Z,1.60
2022-11-03T04:53:52.611Z,2.90
2022-11-03T04:56:23.148Z,1.50
2022-11-03T04:58:49.903Z,1.90
2022-11-03T05:01:24.026Z,2.25
2022-11-03T05:03:54.147Z,1.33
2022-11-03T05:06:27.873Z,1.83
2022-11-03T05:09:05.629Z,1.30
2022-11-03T05:11:38.805Z,1.55
2022-11-03T05:14:20.446Z,1.88
2022-11-03T05:16:48.406Z,1.38
2022-11-03T05:19:22.303Z,1.67
2022-11-03T05:21:51.674Z,1.30
2022-11-03T05:24:21.036Z,1.60
2022-11-03T05:26:49.115Z,1.92
2022-11-03T05:29:22.483Z,1.67
2022-11-03T05:31:52.063Z,1.20
2022-11-03T05:34:29.862Z,2.10
2022-11-03T05:37:32.890Z,1.55
2022-11-03T05:40:25.391Z,1.23
2022-11-03T05:42:56.848Z,2.30
2022-11-03T05:45:30.049Z,1.65
2022-11-03T05:47:57.762Z,1.50
2022-11-03T05:50:30.613Z,1.70
2022-11-03T05:53:06.381Z,1.33
2022-11-03T05:55:37.110Z,1.73
2022-11-03T05:58:25.525Z,1.15
2022-11-03T06:00:53.213Z,1.23
2022-11-03T06:03:25.052Z,2.10
2022-11-03T06:05:52.861Z,1.58
2022-11-03T06:08:26.243Z,1.80
2022-11-03T06:10:58.138Z,2.15
2022-11-03T06:13:37.301Z,1.17
2022-11-03T06:16:36.508Z,1.55
2022-11-03T06:19:28.280Z,1.38
2022-11-03T06:22:05.820Z,1.55
2022-11-03T06:24:33.954Z,1.58
2022-11-03T06:27:00.659Z,1.20
2022-11-03T06:29:32.405Z,1.48
2022-11-03T06:31:59.316Z,1.48
2022-11-03T06:34:47.610Z,1.65
2022-11-03T06:37:20.913Z,2.30
2022-11-03T06:39:48.507Z,1.75
2022-11-03T06:42:16.917Z,2.83
2022-11-03T06:44:48.868Z,1.60
2022-11-03T06:49:58.238Z,1.75
2022-11-03T06:52:33.837Z,1.48
2022-11-03T06:55:12.154Z,1.50
2022-11-03T06:57:46.269Z,1.50
2022-11-03T07:03:22.301Z,1.45
2022-11-03T07:05:48.965Z,1.63
2022-11-03T07:08:39.070Z,1.73
2022-11-03T07:11:23.811Z,1.27
2022-11-03T07:13:53.551Z,1.58
2022-11-03T07:16:42.431Z,1.75
2022-11-03T07:19:32.626Z,1.52
2022-11-03T07:22:02.461Z,1.55
2022-11-03T07:24:36.102Z,1.73
2022-11-03T07:27:14.490Z,1.30
2022-11-03T07:29:42.759Z,2.15
2022-11-03T07:32:20.626Z,1.60
2022-11-03T07:34:49.206Z,1.48
2022-11-03T07:37:20.520Z,1.58
2022-11-03T07:39:47.346Z,1.45
2022-11-03T07:42:18.151Z,2.30
2022-11-03T07:44:45.426Z,1.80
2022-11-03T07:47:19.546Z,2.03
2022-11-03T07:49:47.062Z,1.58
2022-11-03T07:52:16.330Z,1.40
2022-11-03T07:54:43.105Z,2.03
2022-11-03T07:57:19.576Z,1.13
2022-11-03T07:59:49.491Z,1.27
2022-11-03T08:02:46.875Z,1.30
2022-11-03T08:05:13.840Z,1.60
2022-11-03T08:07:40.572Z,1.38
2022-11-03T08:10:07.669Z,1.40
2022-11-03T08:12:34.406Z,2.30
2022-11-03T08:15:01.111Z,2.58
2022-11-03T08:17:27.851Z,1.85
2022-11-03T08:19:54.551Z,1.63
2022-11-03T08:22:23.067Z,1.95
2022-11-03T08:24:49.736Z,1.50
2022-11-03T08:27:16.450Z,1.80
2022-11-03T08:29:43.109Z,1.75
2022-11-03T08:32:09.804Z,1.75
2022-11-03T08:34:36.476Z,1.27
2022-11-03T08:37:03.765Z,1.63
2022-11-03T08:39:31.348Z,2.00
2022-11-03T08:41:58.217Z,1.17
2022-11-03T08:44:24.880Z,1.73
2022-11-03T08:46:51.566Z,1.73
2022-11-03T08:49:18.248Z,2.00
2022-11-03T08:51:45.236Z,1.25
2022-11-03T08:54:12.001Z,1.10
2022-11-03T08:56:38.698Z,1.65
2022-11-03T08:59:05.410Z,1.60
2022-11-03T09:01:32.246Z,1.30
2022-11-03T09:03:59.146Z,1.38
2022-11-03T09:06:25.927Z,1.75
2022-11-03T09:11:39.551Z,1.30
2022-11-03T09:14:06.316Z,1.42
2022-11-03T09:16:33.075Z,1.77
2022-11-03T09:18:59.801Z,1.40
2022-11-03T09:21:26.479Z,2.20
2022-11-03T09:23:53.222Z,2.03
2022-11-03T09:26:20.174Z,2.22
2022-11-03T09:28:46.880Z,1.60
2022-11-03T09:31:13.605Z,1.55
2022-11-03T09:33:40.290Z,1.50
2022-11-03T09:36:07.313Z,1.73
2022-11-03T09:38:34.056Z,1.40
2022-11-03T09:41:02.187Z,1.75
2022-11-03T09:43:29.018Z,1.63
2022-11-03T09:45:55.687Z,1.40
2022-11-03T09:48:22.422Z,1.02
2022-11-03T09:50:53.472Z,1.55
2022-11-03T09:53:21.180Z,1.83
2022-11-03T09:55:47.846Z,1.80
2022-11-03T09:58:16.692Z,1.17
2022-11-03T10:00:44.006Z,1.35
2022-11-03T10:03:12.814Z,1.52
2022-11-03T10:05:40.782Z,1.75
2022-11-03T10:08:14.943Z,1.20
2022-11-03T10:10:42.583Z,1.50
2022-11-03T10:13:19.224Z,1.52
2022-11-03T10:15:45.915Z,1.73
2022-11-03T10:18:13.042Z,1.30
2022-11-03T10:20:39.830Z,1.38
2022-11-03T10:23:08.651Z,1.83
2022-11-03T10:25:40.234Z,1.88
2022-11-03T10:28:19.305Z,1.20
2022-11-03T10:31:11.321Z,1.60
2022-11-03T10:33:52.487Z,1.17
2022-11-03T10:36:19.189Z,1.20
2022-11-03T10:38:47.750Z,1.60
2022-11-03T10:41:17.254Z,1.67
2022-11-03T10:43:57.429Z,1.40
2022-11-03T10:46:44.734Z,0.93
2022-11-03T10:49:10.740Z,1.05
2022-11-03T10:51:38.353Z,1.73
2022-11-03T10:54:10.027Z,0.70
2022-11-03T10:56:36.907Z,1.30
2022-11-03T10:59:04.146Z,1.40
2022-11-03T11:01:31.862Z,1.05
2022-11-03T11:03:58.865Z,1.23
2022-11-03T11:06:28.294Z,1.75
2022-11-03T11:09:01.438Z,1.67
2022-11-03T11:11:28.900Z,1.52
2022-11-03T11:14:20.318Z,1.50
2022-11-03T11:16:50.457Z,1.23
2022-11-03T11:19:17.257Z,1.70
2022-11-03T11:21:43.876Z,1.40
2022-11-03T11:24:11.669Z,1.30
2022-11-03T11:26:39.746Z,1.70
2022-11-03T11:29:09.467Z,1.00
2022-11-03T11:31:43.498Z,1.60
2022-11-03T11:34:16.826Z,1.15
2022-11-03T11:36:54.419Z,1.35
2022-11-03T11:39:24.341Z,1.33
2022-11-03T11:42:09.424Z,1.60
2022-11-03T11:45:03.402Z,1.83
2022-11-03T11:47:40.568Z,2.00
2022-11-03T11:50:07.274Z,2.05
2022-11-03T11:52:46.620Z,2.33
2022-11-03T11:55:26.893Z,1.30
2022-11-03T11:57:54.391Z,1.50
2022-11-03T12:00:26.174Z,1.75
2022-11-03T12:02:53.930Z,1.38
2022-11-03T12:05:23.671Z,1.58
2022-11-03T12:07:50.655Z,1.95
2022-11-03T12:10:27.060Z,1.33
2022-11-03T12:12:55.853Z,1.48
2022-11-03T12:15:48.746Z,0.93
2022-11-03T12:18:49.355Z,1.80
2022-11-03T12:21:46.156Z,1.33
2022-11-03T12:24:30.942Z,1.50
2022-11-03T12:26:58.945Z,1.50
2022-11-03T12:29:25.647Z,1.63
2022-11-03T12:31:52.638Z,1.73
2022-11-03T12:34:19.421Z,1.48
2022-11-03T12:36:46.201Z,1.45
2022-11-03T12:39:12.969Z,1.70
2022-11-03T12:41:39.639Z,1.10
2022-11-03T12:44:06.431Z,2.78
2022-11-03T12:46:33.109Z,1.75
2022-11-03T12:48:59.848Z,1.60
2022-11-03T12:51:26.548Z,3.63
2022-11-03T12:53:53.274Z,1.40
2022-11-03T12:56:20.243Z,1.25
2022-11-03T12:58:46.987Z,1.80
2022-11-03T13:01:13.859Z,1.63
2022-11-03T13:03:40.749Z,1.23
2022-11-03T13:06:10.072Z,1.45
2022-11-03T13:08:37.257Z,1.15
2022-11-03T13:11:04.384Z,2.10
2022-11-03T13:13:32.657Z,1.42
2022-11-03T13:15:59.403Z,1.40
2022-11-03T13:18:26.114Z,2.00
2022-11-03T13:20:52.796Z,1.65
2022-11-03T13:23:22.105Z,1.40
2022-11-03T13:25:50.079Z,1.17
2022-11-03T13:28:16.853Z,1.65
2022-11-03T13:30:43.587Z,2.28
2022-11-03T13:33:10.732Z,1.42
2022-11-03T13:35:37.819Z,1.67
2022-11-03T13:38:04.561Z,1.35
2022-11-03T13:43:18.099Z,1.73
2022-11-03T13:45:44.812Z,1.70
2022-11-03T13:51:00.060Z,1.65
2022-11-03T13:56:20.828Z,1.30
2022-11-03T14:01:36.701Z,1.88
2022-11-03T14:06:50.622Z,1.73
2022-11-03T14:09:17.360Z,1.23
2022-11-03T14:12:02.538Z,1.17
2022-11-03T14:14:29.276Z,1.50
2022-11-03T14:16:56.037Z,1.25
2022-11-03T14:19:30.788Z,1.45
2022-11-03T14:22:02.196Z,1.02
2022-11-03T14:24:29.054Z,1.35
2022-11-03T14:26:55.692Z,1.50
2022-11-03T14:29:22.401Z,1.20
2022-11-03T14:31:49.094Z,1.25
2022-11-03T14:34:15.796Z,1.27
2022-11-03T14:36:42.654Z,1.40
2022-11-03T14:39:09.461Z,1.73
2022-11-03T14:41:54.853Z,1.20
2022-11-03T14:44:21.590Z,1.25
2022-11-03T14:46:48.279Z,1.33
2022-11-03T14:49:14.952Z,1.50
2022-11-03T14:51:41.797Z,1.60
2022-11-03T14:54:08.479Z,1.25
2022-11-03T14:56:35.146Z,1.70
2022-11-03T14:59:01.819Z,1.60
2022-11-03T15:01:28.717Z,1.42
2022-11-03T15:03:55.538Z,1.48
2022-11-03T15:06:22.305Z,1.30
2022-11-03T15:08:53.569Z,1.80
2022-11-03T15:11:23.027Z,1.45
2022-11-03T15:13:52.312Z,1.35
2022-11-03T15:16:19.414Z,1.75
2022-11-03T15:18:46.154Z,1.48
2022-11-03T15:21:13.210Z,1.48
2022-11-03T15:26:26.895Z,1.50
2022-11-03T15:28:53.684Z,1.40
2022-11-03T15:31:20.456Z,1.27
2022-11-03T15:33:47.163Z,1.50
2022-11-03T15:36:13.920Z,2.53
2022-11-03T15:38:40.688Z,1.13
2022-11-03T15:41:16.649Z,1.73
2022-11-03T15:43:47.963Z,1.58
2022-11-03T15:46:16.090Z,3.03
2022-11-03T15:48:43.644Z,1.13
2022-11-03T15:51:10.739Z,1.40
2022-11-03T15:53:37.714Z,1.10
2022-11-03T15:56:04.709Z,2.25
2022-11-03T15:58:33.993Z,1.42
2022-11-03T16:01:04.653Z,1.10
2022-11-03T16:03:34.573Z,1.30
2022-11-03T16:06:01.322Z,1.45
2022-11-03T16:08:28.093Z,1.80
2022-11-03T16:10:58.209Z,1.63
2022-11-03T16:13:25.883Z,1.30
2022-11-03T16:15:54.512Z,1.45
2022-11-03T16:18:21.488Z,1.27
2022-11-03T16:20:48.244Z,1.35
2022-11-03T16:23:15.033Z,1.73
2022-11-03T16:25:41.734Z,1.60
2022-11-03T16:28:08.937Z,2.15
2022-11-03T16:30:38.290Z,1.52
2022-11-03T16:33:05.270Z,2.53
2022-11-03T16:35:32.058Z,1.38
2022-11-03T16:37:58.882Z,1.48
2022-11-03T16:40:25.719Z,1.38
2022-11-03T16:42:52.508Z,2.25
2022-11-03T16:45:22.198Z,1.75
2022-11-03T16:47:50.333Z,1.58
2022-11-03T16:50:18.517Z,2.40
2022-11-03T16:52:47.078Z,1.80
2022-11-03T16:55:15.091Z,2.20
2022-11-03T16:57:42.691Z,1.98
2022-11-03T17:00:17.740Z,1.90
2022-11-03T17:02:45.989Z,1.60
2022-11-03T17:05:14.111Z,2.03
2022-11-03T17:07:41.044Z,2.15
2022-11-03T17:10:08.571Z,2.35
2022-11-03T17:12:35.506Z,1.88
2022-11-03T17:15:02.449Z,1.50
2022-11-03T17:17:29.263Z,1.65
2022-11-03T17:19:55.986Z,2.03
2022-11-03T17:22:22.945Z,1.38
2022-11-03T17:24:49.848Z,1.80
2022-11-03T17:27:18.897Z,1.65
2022-11-03T17:29:55.540Z,1.73
2022-11-03T17:32:30.689Z,1.80
2022-11-03T17:34:58.385Z,1.90
2022-11-03T17:37:26.257Z,1.70
2022-11-03T17:39:54.279Z,1.70
2022-11-03T17:42:24.704Z,1.92
2022-11-03T17:44:57.776Z,2.08
2022-11-03T17:49:51.506Z,1.60
2022-11-03T17:52:27.951Z,2.10
2022-11-03T17:54:57.343Z,1.40
2022-11-03T17:57:25.530Z,1.58
2022-11-03T17:59:58.808Z,1.60
2022-11-03T18:02:28.529Z,2.00
2022-11-03T18:05:15.320Z,1.90
2022-11-03T18:07:45.528Z,2.10
2022-11-03T18:10:12.281Z,1.67
2022-11-03T18:13:01.883Z,1.58
2022-11-03T18:15:30.038Z,1.85
2022-11-03T18:17:56.996Z,2.20
2022-11-03T18:20:29.869Z,3.25
2022-11-03T18:23:22.929Z,2.08
2022-11-03T18:25:51.057Z,1.50
2022-11-03T18:28:18.738Z,2.10
2022-11-03T18:30:48.641Z,1.80
2022-11-03T18:33:34.205Z,1.75
2022-11-03T18:36:06.191Z,1.80
2022-11-03T18:41:01.862Z,1.98
2022-11-03T18:43:29.118Z,1.63
2022-11-03T18:45:56.253Z,2.20
2022-11-03T18:48:23.975Z,2.03
2022-11-03T18:50:53.717Z,1.63
2022-11-03T18:53:22.785Z,2.00
2022-11-03T18:55:49.623Z,2.28
2022-11-03T18:58:22.141Z,2.50
2022-11-03T19:00:49.008Z,2.67
2022-11-03T19:03:18.216Z,2.22
2022-11-03T19:05:46.648Z,2.15
2022-11-03T19:08:25.530Z,2.10
2022-11-03T19:10:53.542Z,2.25
2022-11-03T19:13:30.279Z,2.63
2022-11-03T19:15:59.149Z,2.30
2022-11-03T19:18:33.310Z,2.25
2022-11-03T19:21:00.151Z,2.30
2022-11-03T19:23:27.053Z,2.55
2022-11-03T19:25:58.627Z,2.40
2022-11-03T19:28:29.545Z,2.40
2022-11-03T19:30:58.058Z,2.00
2022-11-03T19:33:27.913Z,2.60
2022-11-03T19:35:55.002Z,2.55
2022-11-03T19:38:21.786Z,2.45
2022-11-03T19:41:07.189Z,2.50
2022-11-03T19:43:35.015Z,2.92
2022-11-03T19:46:02.722Z,2.08
2022-11-03T19:48:33.090Z,3.13
2022-11-03T19:50:59.946Z,2.20
2022-11-03T19:53:29.316Z,2.90
2022-11-03T19:55:56.711Z,2.80
2022-11-03T19:58:27.472Z,2.60
2022-11-03T20:00:55.002Z,3.15
2022-11-03T20:03:24.968Z,2.60
2022-11-03T20:05:54.487Z,2.33
2022-11-03T20:08:24.277Z,2.65
2022-11-03T20:10:51.520Z,2.60
2022-11-03T20:13:21.815Z,2.58
2022-11-03T20:15:49.155Z,2.45
2022-11-03T20:18:18.133Z,2.03
2022-11-03T20:20:48.094Z,2.65
2022-11-03T20:23:22.694Z,2.38
2022-11-03T20:25:49.769Z,2.40
2022-11-03T20:28:27.441Z,2.92
2022-11-03T20:30:55.417Z,2.70
2022-11-03T20:33:23.882Z,3.20
2022-11-03T20:35:52.293Z,2.88
2022-11-03T20:38:20.264Z,2.50
2022-11-03T20:40:49.367Z,2.30
2022-11-03T20:43:29.036Z,3.00
2022-11-03T20:45:56.450Z,2.60
2022-11-03T20:48:23.850Z,2.38
2022-11-03T20:50:51.170Z,2.40
2022-11-03T20:53:20.090Z,2.38
2022-11-03T20:55:47.214Z,3.03
2022-11-03T20:58:16.405Z,2.83
2022-11-03T21:00:45.397Z,2.92
2022-11-03T21:03:37.701Z,2.38
2022-11-03T21:06:14.804Z,2.50
2022-11-03T21:08:41.859Z,3.08
2022-11-03T21:11:27.818Z,2.72
2022-11-03T21:14:00.071Z,2.70
2022-11-03T21:16:47.679Z,2.70
2022-11-03T21:19:37.190Z,2.70
2022-11-03T21:25:03.659Z,3.13
2022-11-03T21:27:30.403Z,2.90
2022-11-03T21:29:59.737Z,2.50
2022-11-03T21:32:27.037Z,2.95
2022-11-03T21:34:53.902Z,2.78
2022-11-03T21:37:20.756Z,3.00
2022-11-03T21:39:47.585Z,2.55
2022-11-03T21:42:34.150Z,3.05
2022-11-03T21:45:01.060Z,2.80
2022-11-03T21:47:28.300Z,2.80
2022-11-03T21:49:55.044Z,2.78
2022-11-03T21:52:31.640Z,2.83
2022-11-03T21:55:02.992Z,3.47
2022-11-03T21:57:30.549Z,2.50
2022-11-03T22:00:00.548Z,2.72
2022-11-03T22:02:29.809Z,2.58
2022-11-03T22:04:57.003Z,2.58
2022-11-03T22:07:24.142Z,3.40
2022-11-03T22:09:50.870Z,2.65
2022-11-03T22:12:17.642Z,3.10
2022-11-03T22:15:02.969Z,3.25
2022-11-03T22:17:29.802Z,3.53
2022-11-03T22:20:15.022Z,3.30
2022-11-03T22:23:00.562Z,3.58
2022-11-03T22:25:46.095Z,2.78
2022-11-03T22:28:14.789Z,2.67
2022-11-03T22:31:00.437Z,2.78
2022-11-03T22:33:27.159Z,2.90
2022-11-03T22:36:21.247Z,2.70
2022-11-03T22:39:07.204Z,2.50
2022-11-03T22:41:53.155Z,2.67
2022-11-03T22:44:38.969Z,2.33
2022-11-03T22:47:08.176Z,2.97
2022-11-03T22:49:35.461Z,2.53
2022-11-03T22:52:02.466Z,2.80
2022-11-03T22:54:29.147Z,2.67
2022-11-03T22:56:55.924Z,2.35
2022-11-03T22:59:22.633Z,2.30
2022-11-03T23:01:49.464Z,2.58
2022-11-03T23:04:16.441Z,2.60
2022-11-03T23:06:43.273Z,2.40
2022-11-03T23:09:11.815Z,2.10
2022-11-03T23:11:38.718Z,2.53
2022-11-03T23:14:08.546Z,2.20
2022-11-03T23:16:41.013Z,2.40
2022-11-03T23:19:29.116Z,2.20
2022-11-03T23:21:56.332Z,1.85
2022-11-03T23:24:45.132Z,2.08
2022-11-03T23:27:12.836Z,1.83
2022-11-03T23:29:39.608Z,2.03
2022-11-03T23:32:06.760Z,1.83
2022-11-03T23:34:34.922Z,2.03
2022-11-03T23:37:02.611Z,1.95
2022-11-03T23:39:29.281Z,1.92
2022-11-03T23:41:56.233Z,1.55
2022-11-03T23:44:22.960Z,2.22
2022-11-03T23:47:08.191Z,2.17
2022-11-03T23:49:35.117Z,1.88
2022-11-03T23:52:01.834Z,2.90
2022-11-03T23:54:28.682Z,1.80
2022-11-03T23:57:13.850Z,1.88
2022-11-03T23:59:40.599Z,1.75
